N345DB 07FA-KLAL
Flight info
| Callsign | N345DB |
|---|---|
| Flight time | 1h 50m |
| Altitude | 11500 |
| Route | LAKE PARKER ARRIVAL |
| Aircraft | BE36/L-SBDFGRY/S |
Departure
| Time | 2026-04-26 20:22 |
|---|---|
| Airport | Ocean Reef Club Airport (07FA) |
Arrival
| Time | 2026-04-26 22:12 |
|---|---|
| Airport | Lakeland Linder International Airport (KLAL) |
| Time | Latitude | Longitude | Altitude | Speed | Heading |
|---|---|---|---|---|---|
| 2026-04-26 20:12 | 25.32089 | -80.27834 | 8 ft | 0 kts | 323° |
| 2026-04-26 20:18 | 25.32105 | -80.27837 | 8 ft | 5 kts | 19° |
| 2026-04-26 20:19 | 25.32153 | -80.27802 | 8 ft | 11 kts | 41° |
| 2026-04-26 20:19 | 25.32228 | -80.27737 | 8 ft | 16 kts | 36° |
| 2026-04-26 20:19 | 25.32342 | -80.27646 | 8 ft | 23 kts | 40° |
| 2026-04-26 20:19 | 25.32489 | -80.27514 | 8 ft | 30 kts | 38° |
| 2026-04-26 20:20 | 25.32654 | -80.27367 | 8 ft | 29 kts | 38° |
| 2026-04-26 20:20 | 25.32807 | -80.27238 | 8 ft | 26 kts | 34° |
| 2026-04-26 20:20 | 25.32888 | -80.27177 | 8 ft | 11 kts | 212° |
| 2026-04-26 20:20 | 25.32831 | -80.27226 | 8 ft | 9 kts | 219° |
| 2026-04-26 20:21 | 25.32786 | -80.27265 | 8 ft | 14 kts | 217° |
| 2026-04-26 20:21 | 25.32512 | -80.27495 | 10 ft | 77 kts | 220° |
| 2026-04-26 20:21 | 25.32129 | -80.27957 | 213 ft | 91 kts | 231° |
| 2026-04-26 20:21 | 25.31811 | -80.28584 | 576 ft | 97 kts | 266° |
| 2026-04-26 20:22 | 25.32246 | -80.29180 | 789 ft | 121 kts | 351° |
| 2026-04-26 20:22 | 25.33028 | -80.28932 | 932 ft | 131 kts | 32° |
| 2026-04-26 20:22 | 25.33838 | -80.28343 | 957 ft | 143 kts | 43° |
| 2026-04-26 20:22 | 25.34562 | -80.27589 | 1002 ft | 144 kts | 52° |
| 2026-04-26 20:23 | 25.35305 | -80.26839 | 933 ft | 146 kts | 30° |
| 2026-04-26 20:23 | 25.36274 | -80.26565 | 952 ft | 141 kts | 12° |
| 2026-04-26 20:23 | 25.37226 | -80.26393 | 966 ft | 137 kts | 12° |
| 2026-04-26 20:23 | 25.38164 | -80.26208 | 965 ft | 135 kts | 14° |
| 2026-04-26 20:24 | 25.39094 | -80.26014 | 968 ft | 134 kts | 15° |
| 2026-04-26 20:24 | 25.40016 | -80.25811 | 966 ft | 134 kts | 14° |
| 2026-04-26 20:24 | 25.40934 | -80.25606 | 965 ft | 133 kts | 14° |
| 2026-04-26 20:24 | 25.41837 | -80.25337 | 971 ft | 133 kts | 25° |
| 2026-04-26 20:25 | 25.42727 | -80.24943 | 974 ft | 142 kts | 26° |
| 2026-04-26 20:25 | 25.43347 | -80.24662 | 972 ft | 149 kts | 26° |
| 2026-04-26 20:25 | 25.44620 | -80.24077 | 967 ft | 156 kts | 26° |
| 2026-04-26 20:25 | 25.45637 | -80.23611 | 965 ft | 158 kts | 26° |
| 2026-04-26 20:26 | 25.46661 | -80.23148 | 963 ft | 160 kts | 26° |
| 2026-04-26 20:26 | 25.47703 | -80.22692 | 969 ft | 162 kts | 22° |
| 2026-04-26 20:26 | 25.48756 | -80.22212 | 971 ft | 164 kts | 23° |
| 2026-04-26 20:26 | 25.49820 | -80.21722 | 968 ft | 165 kts | 24° |
| 2026-04-26 20:27 | 25.50882 | -80.21232 | 968 ft | 165 kts | 23° |
| 2026-04-26 20:27 | 25.51940 | -80.20741 | 970 ft | 165 kts | 23° |
| 2026-04-26 20:27 | 25.53008 | -80.20247 | 971 ft | 166 kts | 23° |
| 2026-04-26 20:27 | 25.54079 | -80.19754 | 973 ft | 166 kts | 23° |
| 2026-04-26 20:28 | 25.55156 | -80.19253 | 970 ft | 167 kts | 23° |
| 2026-04-26 20:28 | 25.56233 | -80.18755 | 972 ft | 167 kts | 24° |
| 2026-04-26 20:28 | 25.57311 | -80.18255 | 971 ft | 167 kts | 23° |
| 2026-04-26 20:28 | 25.58379 | -80.17762 | 972 ft | 167 kts | 23° |
| 2026-04-26 20:29 | 25.59438 | -80.17219 | 972 ft | 167 kts | 26° |
| 2026-04-26 20:29 | 25.60486 | -80.16661 | 971 ft | 167 kts | 26° |
| 2026-04-26 20:29 | 25.61545 | -80.16106 | 969 ft | 167 kts | 26° |
| 2026-04-26 20:29 | 25.62597 | -80.15554 | 970 ft | 167 kts | 26° |
| 2026-04-26 20:30 | 25.63652 | -80.15010 | 969 ft | 167 kts | 26° |
| 2026-04-26 20:30 | 25.64717 | -80.14464 | 969 ft | 167 kts | 26° |
| 2026-04-26 20:30 | 25.65777 | -80.13914 | 968 ft | 167 kts | 26° |
| 2026-04-26 20:30 | 25.66839 | -80.13365 | 968 ft | 167 kts | 26° |
| 2026-04-26 20:31 | 25.67887 | -80.12822 | 968 ft | 167 kts | 26° |
| 2026-04-26 20:31 | 25.68940 | -80.12277 | 969 ft | 167 kts | 26° |
| 2026-04-26 20:31 | 25.69990 | -80.11738 | 969 ft | 166 kts | 26° |
| 2026-04-26 20:31 | 25.71038 | -80.11204 | 969 ft | 166 kts | 26° |
| 2026-04-26 20:32 | 25.72106 | -80.10661 | 969 ft | 167 kts | 26° |
| 2026-04-26 20:32 | 25.73167 | -80.10120 | 970 ft | 167 kts | 26° |
| 2026-04-26 20:32 | 25.74223 | -80.09577 | 967 ft | 167 kts | 26° |
| 2026-04-26 20:32 | 25.75280 | -80.09041 | 968 ft | 167 kts | 26° |
| 2026-04-26 20:33 | 25.76337 | -80.08512 | 966 ft | 167 kts | 26° |
| 2026-04-26 20:33 | 25.77408 | -80.07980 | 967 ft | 168 kts | 26° |
| 2026-04-26 20:33 | 25.78470 | -80.07443 | 964 ft | 168 kts | 26° |
| 2026-04-26 20:33 | 25.79527 | -80.06912 | 964 ft | 168 kts | 26° |
| 2026-04-26 20:34 | 25.80588 | -80.06388 | 962 ft | 168 kts | 26° |
| 2026-04-26 20:34 | 25.81658 | -80.05854 | 963 ft | 168 kts | 26° |
| 2026-04-26 20:34 | 25.82745 | -80.05314 | 963 ft | 168 kts | 26° |
| 2026-04-26 20:34 | 25.83814 | -80.04784 | 964 ft | 167 kts | 26° |
| 2026-04-26 20:35 | 25.84875 | -80.04258 | 965 ft | 167 kts | 26° |
| 2026-04-26 20:35 | 25.85930 | -80.03736 | 965 ft | 167 kts | 26° |
| 2026-04-26 20:35 | 25.87006 | -80.03203 | 965 ft | 167 kts | 26° |
| 2026-04-26 20:35 | 25.88058 | -80.02678 | 967 ft | 167 kts | 26° |
| 2026-04-26 20:36 | 25.89118 | -80.02147 | 967 ft | 167 kts | 26° |
| 2026-04-26 20:36 | 25.90183 | -80.01617 | 963 ft | 168 kts | 26° |
| 2026-04-26 20:36 | 25.91258 | -80.01086 | 964 ft | 168 kts | 26° |
| 2026-04-26 20:36 | 25.92326 | -80.00561 | 967 ft | 167 kts | 25° |
| 2026-04-26 20:37 | 25.93420 | -80.00127 | 963 ft | 170 kts | 7° |
| 2026-04-26 20:37 | 25.94604 | -80.00227 | 967 ft | 170 kts | 353° |
| 2026-04-26 20:37 | 25.95791 | -80.00390 | 961 ft | 171 kts | 355° |
| 2026-04-26 20:37 | 25.96931 | -80.00509 | 960 ft | 171 kts | 355° |
| 2026-04-26 20:38 | 25.98136 | -80.00635 | 960 ft | 171 kts | 355° |
| 2026-04-26 20:38 | 25.99326 | -80.00742 | 959 ft | 170 kts | 357° |
| 2026-04-26 20:38 | 26.00504 | -80.00823 | 959 ft | 170 kts | 357° |
| 2026-04-26 20:38 | 26.01692 | -80.00890 | 962 ft | 170 kts | 358° |
| 2026-04-26 20:39 | 26.02887 | -80.00952 | 963 ft | 170 kts | 358° |
| 2026-04-26 20:39 | 26.03680 | -80.00993 | 961 ft | 170 kts | 358° |
| 2026-04-26 20:39 | 26.05239 | -80.01077 | 962 ft | 170 kts | 358° |
| 2026-04-26 20:39 | 26.06418 | -80.01092 | 961 ft | 169 kts | 1° |
| 2026-04-26 20:40 | 26.07598 | -80.01089 | 962 ft | 169 kts | 1° |
| 2026-04-26 20:40 | 26.08797 | -80.01085 | 961 ft | 169 kts | 1° |
| 2026-04-26 20:40 | 26.09983 | -80.01080 | 961 ft | 169 kts | 1° |
| 2026-04-26 20:40 | 26.11160 | -80.01105 | 960 ft | 170 kts | 356° |
| 2026-04-26 20:41 | 26.12340 | -80.01238 | 960 ft | 170 kts | 351° |
| 2026-04-26 20:41 | 26.13499 | -80.01483 | 961 ft | 170 kts | 349° |
| 2026-04-26 20:41 | 26.14648 | -80.01826 | 960 ft | 170 kts | 341° |
| 2026-04-26 20:41 | 26.15741 | -80.02343 | 958 ft | 171 kts | 335° |
| 2026-04-26 20:42 | 26.16805 | -80.02922 | 959 ft | 170 kts | 326° |
| 2026-04-26 20:42 | 26.17791 | -80.03671 | 958 ft | 171 kts | 323° |
| 2026-04-26 20:42 | 26.18763 | -80.04434 | 958 ft | 171 kts | 323° |
| 2026-04-26 20:42 | 26.19750 | -80.05208 | 959 ft | 171 kts | 323° |
| 2026-04-26 20:43 | 26.20714 | -80.05962 | 959 ft | 171 kts | 323° |
| 2026-04-26 20:43 | 26.21681 | -80.06718 | 960 ft | 171 kts | 323° |
| 2026-04-26 20:43 | 26.22772 | -80.07180 | 952 ft | 170 kts | 356° |
| 2026-04-26 20:43 | 26.23952 | -80.07155 | 959 ft | 169 kts | 4° |
| 2026-04-26 20:44 | 26.25125 | -80.07069 | 962 ft | 169 kts | 5° |
| 2026-04-26 20:44 | 26.26267 | -80.06980 | 911 ft | 172 kts | 5° |
| 2026-04-26 20:44 | 26.27465 | -80.06886 | 1043 ft | 161 kts | 5° |
| 2026-04-26 20:44 | 26.28583 | -80.06799 | 1246 ft | 161 kts | 5° |
| 2026-04-26 20:45 | 26.29695 | -80.06710 | 1479 ft | 162 kts | 4° |
| 2026-04-26 20:45 | 26.30826 | -80.06622 | 1713 ft | 163 kts | 4° |
| 2026-04-26 20:45 | 26.31954 | -80.06536 | 1946 ft | 163 kts | 3° |
| 2026-04-26 20:45 | 26.33092 | -80.06448 | 2181 ft | 163 kts | 3° |
| 2026-04-26 20:46 | 26.34222 | -80.06361 | 2417 ft | 163 kts | 2° |
| 2026-04-26 20:46 | 26.35357 | -80.06272 | 2653 ft | 162 kts | 1° |
| 2026-04-26 20:46 | 26.36477 | -80.06186 | 2887 ft | 160 kts | 1° |
| 2026-04-26 20:46 | 26.37570 | -80.06102 | 3118 ft | 160 kts | 1° |
| 2026-04-26 20:47 | 26.38683 | -80.06016 | 3356 ft | 159 kts | 1° |
| 2026-04-26 20:47 | 26.39418 | -80.05962 | 3514 ft | 158 kts | 0° |
| 2026-04-26 20:47 | 26.40863 | -80.05849 | 3860 ft | 155 kts | 360° |
| 2026-04-26 20:47 | 26.41928 | -80.05768 | 4142 ft | 152 kts | 360° |
| 2026-04-26 20:48 | 26.42978 | -80.05687 | 4425 ft | 150 kts | 359° |
| 2026-04-26 20:48 | 26.44016 | -80.05608 | 4708 ft | 149 kts | 358° |
| 2026-04-26 20:48 | 26.45047 | -80.05525 | 4993 ft | 147 kts | 359° |
| 2026-04-26 20:48 | 26.46070 | -80.05448 | 5278 ft | 146 kts | 358° |
| 2026-04-26 20:49 | 26.47088 | -80.05368 | 5564 ft | 145 kts | 357° |
| 2026-04-26 20:49 | 26.48091 | -80.05290 | 5847 ft | 145 kts | 356° |
| 2026-04-26 20:49 | 26.49104 | -80.05213 | 6135 ft | 144 kts | 356° |
| 2026-04-26 20:49 | 26.50096 | -80.05138 | 6417 ft | 144 kts | 356° |
| 2026-04-26 20:50 | 26.51111 | -80.05063 | 6708 ft | 144 kts | 356° |
| 2026-04-26 20:50 | 26.52088 | -80.04990 | 6987 ft | 144 kts | 356° |
| 2026-04-26 20:50 | 26.53094 | -80.04911 | 7274 ft | 144 kts | 356° |
| 2026-04-26 20:50 | 26.54101 | -80.04834 | 7561 ft | 145 kts | 356° |
| 2026-04-26 20:51 | 26.55098 | -80.04757 | 7846 ft | 145 kts | 356° |
| 2026-04-26 20:51 | 26.56114 | -80.04680 | 8137 ft | 145 kts | 355° |
| 2026-04-26 20:51 | 26.57117 | -80.04602 | 8421 ft | 145 kts | 356° |
| 2026-04-26 20:51 | 26.58128 | -80.04525 | 8708 ft | 146 kts | 356° |
| 2026-04-26 20:52 | 26.59139 | -80.04446 | 8995 ft | 146 kts | 355° |
| 2026-04-26 20:52 | 26.60153 | -80.04368 | 9284 ft | 146 kts | 355° |
| 2026-04-26 20:52 | 26.61157 | -80.04289 | 9568 ft | 146 kts | 355° |
| 2026-04-26 20:52 | 26.62183 | -80.04211 | 9859 ft | 146 kts | 355° |
| 2026-04-26 20:53 | 26.63195 | -80.04134 | 10144 ft | 146 kts | 355° |
| 2026-04-26 20:53 | 26.64217 | -80.04057 | 10431 ft | 146 kts | 355° |
| 2026-04-26 20:53 | 26.65228 | -80.03979 | 10714 ft | 147 kts | 356° |
| 2026-04-26 20:53 | 26.66266 | -80.03901 | 10832 ft | 159 kts | 356° |
| 2026-04-26 20:54 | 26.67444 | -80.03819 | 10764 ft | 175 kts | 357° |
| 2026-04-26 20:54 | 26.68686 | -80.03772 | 10816 ft | 178 kts | 355° |
| 2026-04-26 20:54 | 26.69290 | -80.03758 | 10853 ft | 179 kts | 355° |
| 2026-04-26 20:54 | 26.70484 | -80.03732 | 10923 ft | 180 kts | 355° |
| 2026-04-26 20:55 | 26.71750 | -80.03704 | 10980 ft | 181 kts | 355° |
| 2026-04-26 20:55 | 26.73023 | -80.03677 | 11064 ft | 181 kts | 355° |
| 2026-04-26 20:55 | 26.74306 | -80.03650 | 11052 ft | 186 kts | 355° |
| 2026-04-26 20:55 | 26.75609 | -80.03622 | 11050 ft | 188 kts | 355° |
| 2026-04-26 20:56 | 26.76921 | -80.03595 | 11050 ft | 189 kts | 355° |
| 2026-04-26 20:56 | 26.78239 | -80.03567 | 11049 ft | 189 kts | 355° |
| 2026-04-26 20:56 | 26.79565 | -80.03540 | 11048 ft | 190 kts | 355° |
| 2026-04-26 20:56 | 26.80894 | -80.03512 | 11047 ft | 190 kts | 355° |
| 2026-04-26 20:57 | 26.82208 | -80.03484 | 11045 ft | 187 kts | 355° |
| 2026-04-26 20:57 | 26.83468 | -80.03452 | 11028 ft | 162 kts | 355° |
| 2026-04-26 20:57 | 26.84588 | -80.03426 | 11054 ft | 165 kts | 354° |
| 2026-04-26 20:57 | 26.85749 | -80.03406 | 11062 ft | 167 kts | 354° |
| 2026-04-26 20:58 | 26.86920 | -80.03384 | 11051 ft | 167 kts | 354° |
| 2026-04-26 20:58 | 26.88072 | -80.03362 | 11045 ft | 166 kts | 354° |
| 2026-04-26 20:58 | 26.89228 | -80.03378 | 11037 ft | 162 kts | 344° |
| 2026-04-26 20:58 | 26.90292 | -80.03758 | 11036 ft | 159 kts | 334° |
| 2026-04-26 20:59 | 26.91323 | -80.04198 | 11019 ft | 157 kts | 333° |
| 2026-04-26 20:59 | 26.92339 | -80.04638 | 11051 ft | 156 kts | 333° |
| 2026-04-26 20:59 | 26.93366 | -80.05082 | 11049 ft | 158 kts | 333° |
| 2026-04-26 20:59 | 26.94400 | -80.05528 | 11041 ft | 159 kts | 334° |
| 2026-04-26 21:00 | 26.95446 | -80.05980 | 11038 ft | 158 kts | 333° |
| 2026-04-26 21:00 | 26.96469 | -80.06422 | 11042 ft | 158 kts | 334° |
| 2026-04-26 21:00 | 26.97501 | -80.06865 | 11041 ft | 158 kts | 333° |
| 2026-04-26 21:00 | 26.98534 | -80.07313 | 11030 ft | 158 kts | 333° |
| 2026-04-26 21:01 | 26.99557 | -80.07754 | 11025 ft | 157 kts | 333° |
| 2026-04-26 21:01 | 27.00571 | -80.08192 | 11015 ft | 156 kts | 333° |
| 2026-04-26 21:01 | 27.01583 | -80.08629 | 11025 ft | 155 kts | 333° |
| 2026-04-26 21:01 | 27.02595 | -80.09066 | 11046 ft | 156 kts | 333° |
| 2026-04-26 21:02 | 27.03629 | -80.09516 | 10909 ft | 163 kts | 333° |
| 2026-04-26 21:02 | 27.04719 | -80.09991 | 10765 ft | 170 kts | 333° |
| 2026-04-26 21:02 | 27.05830 | -80.10471 | 10617 ft | 174 kts | 333° |
| 2026-04-26 21:02 | 27.06970 | -80.10963 | 10421 ft | 176 kts | 333° |
| 2026-04-26 21:03 | 27.08116 | -80.11457 | 10251 ft | 177 kts | 333° |
| 2026-04-26 21:03 | 27.09269 | -80.11952 | 10133 ft | 175 kts | 332° |
| 2026-04-26 21:03 | 27.10414 | -80.12449 | 9855 ft | 182 kts | 333° |
| 2026-04-26 21:03 | 27.11613 | -80.12971 | 9539 ft | 188 kts | 333° |
| 2026-04-26 21:04 | 27.12849 | -80.13507 | 9170 ft | 190 kts | 333° |
| 2026-04-26 21:04 | 27.14073 | -80.14034 | 8787 ft | 185 kts | 332° |
| 2026-04-26 21:04 | 27.15285 | -80.14562 | 8196 ft | 190 kts | 333° |
| 2026-04-26 21:04 | 27.16433 | -80.15050 | 8233 ft | 165 kts | 332° |
| 2026-04-26 21:05 | 27.17483 | -80.15501 | 8257 ft | 156 kts | 332° |
| 2026-04-26 21:05 | 27.18486 | -80.15937 | 8266 ft | 152 kts | 332° |
| 2026-04-26 21:05 | 27.19445 | -80.16352 | 8264 ft | 150 kts | 331° |
| 2026-04-26 21:05 | 27.20420 | -80.16777 | 8260 ft | 148 kts | 331° |
| 2026-04-26 21:06 | 27.21430 | -80.17225 | 7950 ft | 165 kts | 332° |
| 2026-04-26 21:06 | 27.22542 | -80.17715 | 7598 ft | 176 kts | 333° |
| 2026-04-26 21:06 | 27.23708 | -80.18221 | 7138 ft | 188 kts | 333° |
| 2026-04-26 21:06 | 27.24958 | -80.18769 | 6611 ft | 193 kts | 333° |
| 2026-04-26 21:07 | 27.26210 | -80.19308 | 6248 ft | 191 kts | 334° |
| 2026-04-26 21:07 | 27.27415 | -80.19824 | 6167 ft | 176 kts | 333° |
| 2026-04-26 21:07 | 27.28514 | -80.20297 | 6181 ft | 164 kts | 333° |
| 2026-04-26 21:07 | 27.29562 | -80.20750 | 6188 ft | 159 kts | 333° |
| 2026-04-26 21:08 | 27.30659 | -80.21233 | 5813 ft | 176 kts | 333° |
| 2026-04-26 21:08 | 27.31829 | -80.21746 | 5475 ft | 183 kts | 333° |
| 2026-04-26 21:08 | 27.33016 | -80.22265 | 5165 ft | 186 kts | 334° |
| 2026-04-26 21:08 | 27.34236 | -80.22795 | 4854 ft | 187 kts | 334° |
| 2026-04-26 21:09 | 27.35445 | -80.23319 | 4548 ft | 188 kts | 334° |
| 2026-04-26 21:09 | 27.36677 | -80.23856 | 4244 ft | 188 kts | 335° |
| 2026-04-26 21:09 | 27.37837 | -80.24355 | 4289 ft | 173 kts | 334° |
| 2026-04-26 21:09 | 27.38948 | -80.24837 | 4296 ft | 165 kts | 334° |
| 2026-04-26 21:10 | 27.40003 | -80.25294 | 4299 ft | 161 kts | 334° |
| 2026-04-26 21:10 | 27.41045 | -80.25748 | 4300 ft | 158 kts | 333° |
| 2026-04-26 21:10 | 27.42066 | -80.26193 | 4295 ft | 157 kts | 333° |
| 2026-04-26 21:10 | 27.43083 | -80.26637 | 4292 ft | 156 kts | 334° |
| 2026-04-26 21:11 | 27.44106 | -80.27086 | 4288 ft | 155 kts | 334° |
| 2026-04-26 21:11 | 27.45112 | -80.27524 | 4285 ft | 155 kts | 333° |
| 2026-04-26 21:11 | 27.46126 | -80.27966 | 4281 ft | 155 kts | 334° |
| 2026-04-26 21:11 | 27.47121 | -80.28402 | 4281 ft | 155 kts | 334° |
| 2026-04-26 21:12 | 27.48141 | -80.28846 | 4281 ft | 154 kts | 334° |
| 2026-04-26 21:12 | 27.49142 | -80.29283 | 4281 ft | 154 kts | 334° |
| 2026-04-26 21:12 | 27.50145 | -80.29721 | 4281 ft | 154 kts | 334° |
| 2026-04-26 21:12 | 27.51150 | -80.30158 | 4282 ft | 154 kts | 333° |
| 2026-04-26 21:13 | 27.52149 | -80.30595 | 4284 ft | 154 kts | 333° |
| 2026-04-26 21:13 | 27.53159 | -80.31036 | 4286 ft | 154 kts | 333° |
| 2026-04-26 21:13 | 27.54154 | -80.31469 | 4288 ft | 154 kts | 333° |
| 2026-04-26 21:13 | 27.55157 | -80.31908 | 4287 ft | 154 kts | 334° |
| 2026-04-26 21:14 | 27.56160 | -80.32346 | 4287 ft | 156 kts | 334° |
| 2026-04-26 21:14 | 27.57192 | -80.32800 | 4288 ft | 158 kts | 334° |
| 2026-04-26 21:14 | 27.58227 | -80.33250 | 4287 ft | 160 kts | 334° |
| 2026-04-26 21:14 | 27.59270 | -80.33706 | 4286 ft | 161 kts | 334° |
| 2026-04-26 21:15 | 27.60316 | -80.34167 | 4285 ft | 161 kts | 334° |
| 2026-04-26 21:15 | 27.61359 | -80.34623 | 4283 ft | 161 kts | 334° |
| 2026-04-26 21:15 | 27.62418 | -80.35085 | 4284 ft | 162 kts | 334° |
| 2026-04-26 21:15 | 27.63476 | -80.35548 | 4283 ft | 162 kts | 334° |
| 2026-04-26 21:16 | 27.64522 | -80.36005 | 4284 ft | 162 kts | 334° |
| 2026-04-26 21:16 | 27.65579 | -80.36465 | 4283 ft | 162 kts | 334° |
| 2026-04-26 21:16 | 27.66625 | -80.36924 | 4283 ft | 162 kts | 334° |
| 2026-04-26 21:16 | 27.67691 | -80.37390 | 4282 ft | 162 kts | 334° |
| 2026-04-26 21:17 | 27.68738 | -80.37848 | 4282 ft | 162 kts | 334° |
| 2026-04-26 21:17 | 27.69800 | -80.38313 | 4282 ft | 162 kts | 334° |
| 2026-04-26 21:17 | 27.70865 | -80.38779 | 4281 ft | 162 kts | 333° |
| 2026-04-26 21:17 | 27.71915 | -80.39239 | 4280 ft | 162 kts | 334° |
| 2026-04-26 21:18 | 27.72965 | -80.39700 | 4282 ft | 162 kts | 334° |
| 2026-04-26 21:18 | 27.74030 | -80.40167 | 4283 ft | 162 kts | 334° |
| 2026-04-26 21:18 | 27.75077 | -80.40625 | 4283 ft | 162 kts | 333° |
| 2026-04-26 21:18 | 27.76132 | -80.41088 | 4282 ft | 162 kts | 334° |
| 2026-04-26 21:19 | 27.77181 | -80.41550 | 4280 ft | 162 kts | 334° |
| 2026-04-26 21:19 | 27.78237 | -80.42011 | 4281 ft | 162 kts | 333° |
| 2026-04-26 21:19 | 27.79287 | -80.42474 | 4283 ft | 162 kts | 334° |
| 2026-04-26 21:19 | 27.80349 | -80.42939 | 4285 ft | 162 kts | 334° |
| 2026-04-26 21:20 | 27.81399 | -80.43398 | 4284 ft | 162 kts | 334° |
| 2026-04-26 21:20 | 27.82459 | -80.43864 | 4294 ft | 162 kts | 334° |
| 2026-04-26 21:20 | 27.83517 | -80.44328 | 4298 ft | 163 kts | 333° |
| 2026-04-26 21:20 | 27.84575 | -80.44795 | 4287 ft | 163 kts | 333° |
| 2026-04-26 21:21 | 27.85628 | -80.45258 | 4286 ft | 163 kts | 334° |
| 2026-04-26 21:21 | 27.86643 | -80.45704 | 4271 ft | 162 kts | 334° |
| 2026-04-26 21:21 | 27.87692 | -80.46163 | 4281 ft | 161 kts | 334° |
| 2026-04-26 21:21 | 27.88744 | -80.46624 | 4290 ft | 161 kts | 333° |
| 2026-04-26 21:22 | 27.89798 | -80.47089 | 4295 ft | 162 kts | 334° |
| 2026-04-26 21:22 | 27.90857 | -80.47555 | 4285 ft | 162 kts | 334° |
| 2026-04-26 21:22 | 27.91902 | -80.48016 | 4278 ft | 162 kts | 334° |
| 2026-04-26 21:23 | 27.94015 | -80.48945 | 4273 ft | 161 kts | 334° |
| 2026-04-26 21:23 | 27.95056 | -80.49404 | 4275 ft | 161 kts | 334° |
| 2026-04-26 21:23 | 27.96115 | -80.49869 | 4272 ft | 161 kts | 334° |
| 2026-04-26 21:23 | 27.97152 | -80.50326 | 4273 ft | 161 kts | 334° |
| 2026-04-26 21:24 | 27.98196 | -80.50787 | 4278 ft | 160 kts | 333° |
| 2026-04-26 21:24 | 27.98943 | -80.51646 | 4277 ft | 154 kts | 289° |
| 2026-04-26 21:24 | 27.99100 | -80.52832 | 4284 ft | 153 kts | 273° |
| 2026-04-26 21:24 | 27.99141 | -80.54041 | 4287 ft | 154 kts | 271° |
| 2026-04-26 21:25 | 27.99165 | -80.55250 | 4282 ft | 154 kts | 271° |
| 2026-04-26 21:25 | 27.99183 | -80.56477 | 4286 ft | 154 kts | 270° |
| 2026-04-26 21:25 | 27.99195 | -80.57682 | 4284 ft | 155 kts | 270° |
| 2026-04-26 21:25 | 27.99203 | -80.58910 | 4278 ft | 155 kts | 270° |
| 2026-04-26 21:26 | 27.99209 | -80.60115 | 4280 ft | 155 kts | 270° |
| 2026-04-26 21:26 | 27.99214 | -80.61335 | 4282 ft | 155 kts | 270° |
| 2026-04-26 21:26 | 27.99218 | -80.62553 | 4280 ft | 154 kts | 270° |
| 2026-04-26 21:26 | 27.99221 | -80.63785 | 4277 ft | 155 kts | 270° |
| 2026-04-26 21:27 | 27.99224 | -80.64989 | 4278 ft | 155 kts | 270° |
| 2026-04-26 21:27 | 27.99227 | -80.66199 | 4283 ft | 155 kts | 270° |
| 2026-04-26 21:27 | 27.99229 | -80.67413 | 4278 ft | 155 kts | 269° |
| 2026-04-26 21:27 | 27.99231 | -80.68629 | 4285 ft | 155 kts | 270° |
| 2026-04-26 21:28 | 27.99232 | -80.69849 | 4281 ft | 155 kts | 270° |
| 2026-04-26 21:28 | 27.99234 | -80.71078 | 4279 ft | 155 kts | 270° |
| 2026-04-26 21:28 | 27.99236 | -80.72294 | 4280 ft | 156 kts | 270° |
| 2026-04-26 21:28 | 27.99237 | -80.73525 | 4276 ft | 156 kts | 270° |
| 2026-04-26 21:29 | 27.99236 | -80.74751 | 4273 ft | 156 kts | 270° |
| 2026-04-26 21:29 | 27.99238 | -80.75977 | 4271 ft | 156 kts | 270° |
| 2026-04-26 21:29 | 27.99239 | -80.77206 | 4266 ft | 156 kts | 270° |
| 2026-04-26 21:29 | 27.99241 | -80.78429 | 4264 ft | 156 kts | 270° |
| 2026-04-26 21:30 | 27.99242 | -80.79664 | 4262 ft | 156 kts | 270° |
| 2026-04-26 21:30 | 27.99243 | -80.80888 | 4264 ft | 156 kts | 269° |
| 2026-04-26 21:30 | 27.99243 | -80.82124 | 4263 ft | 156 kts | 270° |
| 2026-04-26 21:30 | 27.99243 | -80.83343 | 4263 ft | 156 kts | 269° |
| 2026-04-26 21:31 | 27.99243 | -80.84566 | 4261 ft | 155 kts | 270° |
| 2026-04-26 21:31 | 27.99243 | -80.85788 | 4262 ft | 155 kts | 270° |
| 2026-04-26 21:31 | 27.99243 | -80.87011 | 4264 ft | 155 kts | 270° |
| 2026-04-26 21:31 | 27.99243 | -80.88236 | 4261 ft | 155 kts | 270° |
| 2026-04-26 21:32 | 27.99242 | -80.89447 | 4261 ft | 155 kts | 270° |
| 2026-04-26 21:32 | 27.99242 | -80.90675 | 4260 ft | 155 kts | 270° |
| 2026-04-26 21:32 | 27.99242 | -80.91893 | 4256 ft | 155 kts | 270° |
| 2026-04-26 21:32 | 27.99242 | -80.93119 | 4255 ft | 156 kts | 270° |
| 2026-04-26 21:33 | 27.99241 | -80.94360 | 4253 ft | 156 kts | 270° |
| 2026-04-26 21:33 | 27.99239 | -80.95587 | 4255 ft | 156 kts | 270° |
| 2026-04-26 21:33 | 27.99239 | -80.96812 | 4252 ft | 156 kts | 270° |
| 2026-04-26 21:33 | 27.99239 | -80.98035 | 4251 ft | 156 kts | 270° |
| 2026-04-26 21:34 | 27.99238 | -80.99264 | 4253 ft | 156 kts | 270° |
| 2026-04-26 21:34 | 27.99236 | -81.00480 | 4257 ft | 155 kts | 270° |
| 2026-04-26 21:34 | 27.99235 | -81.01714 | 4254 ft | 155 kts | 270° |
| 2026-04-26 21:34 | 27.99235 | -81.02934 | 4257 ft | 155 kts | 270° |
| 2026-04-26 21:35 | 27.99233 | -81.04153 | 4261 ft | 155 kts | 270° |
| 2026-04-26 21:35 | 27.99231 | -81.05325 | 4266 ft | 154 kts | 269° |
| 2026-04-26 21:35 | 27.99229 | -81.06516 | 4268 ft | 154 kts | 270° |
| 2026-04-26 21:35 | 27.99227 | -81.07737 | 4268 ft | 154 kts | 270° |
| 2026-04-26 21:36 | 27.99225 | -81.08962 | 4272 ft | 156 kts | 270° |
| 2026-04-26 21:36 | 27.99223 | -81.09769 | 4271 ft | 157 kts | 270° |
| 2026-04-26 21:36 | 27.99220 | -81.11433 | 4275 ft | 158 kts | 270° |
| 2026-04-26 21:36 | 27.99219 | -81.12695 | 4273 ft | 159 kts | 270° |
| 2026-04-26 21:37 | 27.99216 | -81.13948 | 4271 ft | 160 kts | 270° |
| 2026-04-26 21:37 | 27.99214 | -81.15200 | 4274 ft | 160 kts | 270° |
| 2026-04-26 21:37 | 27.99211 | -81.16477 | 4276 ft | 161 kts | 270° |
| 2026-04-26 21:37 | 27.99209 | -81.17744 | 4276 ft | 161 kts | 270° |
| 2026-04-26 21:38 | 27.99206 | -81.19003 | 4276 ft | 161 kts | 270° |
| 2026-04-26 21:38 | 27.99203 | -81.20266 | 4274 ft | 160 kts | 270° |
| 2026-04-26 21:38 | 27.99200 | -81.21517 | 4276 ft | 160 kts | 270° |
| 2026-04-26 21:38 | 27.99196 | -81.22785 | 4276 ft | 160 kts | 270° |
| 2026-04-26 21:39 | 27.99193 | -81.24039 | 4273 ft | 160 kts | 270° |
| 2026-04-26 21:39 | 27.99190 | -81.25307 | 4276 ft | 161 kts | 270° |
| 2026-04-26 21:39 | 27.99185 | -81.26566 | 4281 ft | 160 kts | 270° |
| 2026-04-26 21:39 | 27.99181 | -81.27825 | 4281 ft | 160 kts | 271° |
| 2026-04-26 21:40 | 27.99178 | -81.29081 | 4281 ft | 160 kts | 271° |
| 2026-04-26 21:40 | 27.99173 | -81.30344 | 4283 ft | 160 kts | 271° |
| 2026-04-26 21:40 | 27.99170 | -81.31588 | 4283 ft | 160 kts | 271° |
| 2026-04-26 21:40 | 27.99167 | -81.32855 | 4283 ft | 160 kts | 271° |
| 2026-04-26 21:41 | 27.99163 | -81.34119 | 4282 ft | 161 kts | 270° |
| 2026-04-26 21:41 | 27.99160 | -81.35397 | 4281 ft | 161 kts | 270° |
| 2026-04-26 21:41 | 27.99155 | -81.36659 | 4283 ft | 161 kts | 270° |
| 2026-04-26 21:41 | 27.99150 | -81.37931 | 4282 ft | 161 kts | 270° |
| 2026-04-26 21:42 | 27.99145 | -81.39195 | 4283 ft | 161 kts | 270° |
| 2026-04-26 21:42 | 27.99139 | -81.40471 | 4287 ft | 162 kts | 270° |
| 2026-04-26 21:42 | 27.99133 | -81.41740 | 4289 ft | 161 kts | 270° |
| 2026-04-26 21:42 | 27.99135 | -81.43004 | 4282 ft | 161 kts | 274° |
| 2026-04-26 21:43 | 27.99391 | -81.44231 | 4285 ft | 161 kts | 287° |
| 2026-04-26 21:43 | 27.99723 | -81.45454 | 4286 ft | 161 kts | 287° |
| 2026-04-26 21:43 | 28.00047 | -81.46644 | 4284 ft | 160 kts | 287° |
| 2026-04-26 21:43 | 28.00380 | -81.47862 | 4286 ft | 160 kts | 287° |
| 2026-04-26 21:44 | 28.00707 | -81.49065 | 4293 ft | 160 kts | 287° |
| 2026-04-26 21:44 | 28.01030 | -81.50258 | 4290 ft | 160 kts | 287° |
| 2026-04-26 21:44 | 28.01350 | -81.51444 | 4295 ft | 160 kts | 287° |
| 2026-04-26 21:44 | 28.01681 | -81.52665 | 4297 ft | 161 kts | 287° |
| 2026-04-26 21:45 | 28.02002 | -81.53861 | 4295 ft | 161 kts | 287° |
| 2026-04-26 21:45 | 28.02332 | -81.55084 | 4296 ft | 161 kts | 287° |
| 2026-04-26 21:45 | 28.02655 | -81.56280 | 4300 ft | 161 kts | 287° |
| 2026-04-26 21:45 | 28.02984 | -81.57507 | 4301 ft | 161 kts | 287° |
| 2026-04-26 21:46 | 28.03311 | -81.58720 | 4301 ft | 161 kts | 287° |
| 2026-04-26 21:46 | 28.03637 | -81.59930 | 4301 ft | 161 kts | 287° |
| 2026-04-26 21:46 | 28.03964 | -81.61149 | 4304 ft | 161 kts | 287° |
| 2026-04-26 21:46 | 28.04292 | -81.62371 | 4300 ft | 161 kts | 287° |
| 2026-04-26 21:47 | 28.04614 | -81.63573 | 4299 ft | 161 kts | 287° |
| 2026-04-26 21:47 | 28.05086 | -81.64722 | 4279 ft | 162 kts | 313° |
| 2026-04-26 21:47 | 28.06039 | -81.65343 | 4296 ft | 163 kts | 334° |
| 2026-04-26 21:47 | 28.07118 | -81.65800 | 4303 ft | 164 kts | 336° |
| 2026-04-26 21:48 | 28.08197 | -81.66229 | 4302 ft | 164 kts | 337° |
| 2026-04-26 21:48 | 28.09280 | -81.66654 | 4302 ft | 165 kts | 338° |
| 2026-04-26 21:48 | 28.10373 | -81.67076 | 4306 ft | 165 kts | 338° |
| 2026-04-26 21:48 | 28.11450 | -81.67493 | 4303 ft | 165 kts | 337° |
| 2026-04-26 21:49 | 28.12552 | -81.67919 | 4304 ft | 165 kts | 338° |
| 2026-04-26 21:49 | 28.13644 | -81.68342 | 4302 ft | 165 kts | 337° |
| 2026-04-26 21:49 | 28.14732 | -81.68764 | 4301 ft | 165 kts | 338° |
| 2026-04-26 21:49 | 28.15818 | -81.69183 | 4301 ft | 164 kts | 338° |
| 2026-04-26 21:50 | 28.16893 | -81.69601 | 4303 ft | 165 kts | 338° |
| 2026-04-26 21:50 | 28.17630 | -81.69885 | 4305 ft | 164 kts | 338° |
| 2026-04-26 21:50 | 28.19056 | -81.70438 | 4304 ft | 165 kts | 338° |
| 2026-04-26 21:50 | 28.20153 | -81.70862 | 4308 ft | 165 kts | 338° |
| 2026-04-26 21:51 | 28.21234 | -81.71281 | 4306 ft | 165 kts | 338° |
| 2026-04-26 21:51 | 28.22326 | -81.71703 | 4308 ft | 164 kts | 338° |
| 2026-04-26 21:51 | 28.23416 | -81.72127 | 4307 ft | 165 kts | 338° |
| 2026-04-26 21:51 | 28.24507 | -81.72549 | 4307 ft | 164 kts | 338° |
| 2026-04-26 21:52 | 28.25596 | -81.72972 | 4308 ft | 164 kts | 338° |
| 2026-04-26 21:52 | 28.26684 | -81.73393 | 4306 ft | 165 kts | 338° |
| 2026-04-26 21:52 | 28.27803 | -81.73828 | 4143 ft | 174 kts | 338° |
| 2026-04-26 21:52 | 28.28966 | -81.74281 | 4007 ft | 178 kts | 338° |
| 2026-04-26 21:53 | 28.30147 | -81.74737 | 3870 ft | 180 kts | 338° |
| 2026-04-26 21:53 | 28.31332 | -81.75196 | 3732 ft | 180 kts | 338° |
| 2026-04-26 21:53 | 28.32524 | -81.75665 | 3588 ft | 180 kts | 336° |
| 2026-04-26 21:53 | 28.33360 | -81.76643 | 3445 ft | 179 kts | 290° |
| 2026-04-26 21:54 | 28.33347 | -81.78033 | 3316 ft | 182 kts | 255° |
| 2026-04-26 21:54 | 28.32853 | -81.79376 | 3157 ft | 184 kts | 247° |
| 2026-04-26 21:54 | 28.32284 | -81.80669 | 2992 ft | 185 kts | 245° |
| 2026-04-26 21:54 | 28.31681 | -81.81964 | 2827 ft | 186 kts | 243° |
| 2026-04-26 21:55 | 28.30631 | -81.82809 | 2655 ft | 190 kts | 199° |
| 2026-04-26 21:55 | 28.29408 | -81.83024 | 2486 ft | 167 kts | 190° |
| 2026-04-26 21:55 | 28.28345 | -81.83115 | 2288 ft | 142 kts | 179° |
| 2026-04-26 21:55 | 28.27445 | -81.82811 | 2105 ft | 128 kts | 164° |
| 2026-04-26 21:56 | 28.26657 | -81.82404 | 1925 ft | 120 kts | 156° |
| 2026-04-26 21:56 | 28.25913 | -81.82080 | 1744 ft | 109 kts | 177° |
| 2026-04-26 21:56 | 28.25184 | -81.81970 | 1568 ft | 103 kts | 182° |
| 2026-04-26 21:56 | 28.24451 | -81.81964 | 1415 ft | 111 kts | 195° |
| 2026-04-26 21:57 | 28.23655 | -81.82132 | 1262 ft | 114 kts | 199° |
| 2026-04-26 21:57 | 28.22912 | -81.82278 | 1087 ft | 106 kts | 193° |
| 2026-04-26 21:57 | 28.22522 | -81.82320 | 1060 ft | 99 kts | 194° |
| 2026-04-26 21:57 | 28.21863 | -81.82401 | 1121 ft | 98 kts | 192° |
| 2026-04-26 21:58 | 28.21154 | -81.82478 | 1122 ft | 107 kts | 194° |
| 2026-04-26 21:58 | 28.20543 | -81.82501 | 1119 ft | 110 kts | 185° |
| 2026-04-26 21:58 | 28.20081 | -81.82471 | 1105 ft | 113 kts | 184° |
| 2026-04-26 21:58 | 28.19275 | -81.82462 | 1124 ft | 121 kts | 183° |
| 2026-04-26 21:59 | 28.18467 | -81.82132 | 1127 ft | 120 kts | 158° |
| 2026-04-26 21:59 | 28.17749 | -81.81705 | 1065 ft | 114 kts | 158° |
| 2026-04-26 21:59 | 28.17071 | -81.81345 | 1001 ft | 102 kts | 170° |
| 2026-04-26 21:59 | 28.16412 | -81.81195 | 1003 ft | 100 kts | 186° |
| 2026-04-26 22:00 | 28.15703 | -81.81267 | 1080 ft | 102 kts | 200° |
| 2026-04-26 22:00 | 28.15037 | -81.81491 | 1165 ft | 98 kts | 210° |
| 2026-04-26 22:00 | 28.14430 | -81.81801 | 1248 ft | 96 kts | 214° |
| 2026-04-26 22:00 | 28.13812 | -81.82124 | 1159 ft | 101 kts | 211° |
| 2026-04-26 22:01 | 28.13155 | -81.82440 | 1081 ft | 99 kts | 210° |
| 2026-04-26 22:01 | 28.12523 | -81.82722 | 1072 ft | 91 kts | 210° |
| 2026-04-26 22:01 | 28.12193 | -81.83206 | 1059 ft | 75 kts | 266° |
| 2026-04-26 22:01 | 28.12161 | -81.83817 | 1139 ft | 80 kts | 248° |
| 2026-04-26 22:02 | 28.11828 | -81.84368 | 1244 ft | 89 kts | 236° |
| 2026-04-26 22:02 | 28.11538 | -81.84746 | 1236 ft | 99 kts | 234° |
| 2026-04-26 22:02 | 28.10931 | -81.85490 | 1204 ft | 92 kts | 236° |
| 2026-04-26 22:02 | 28.10521 | -81.86028 | 1195 ft | 90 kts | 236° |
| 2026-04-26 22:03 | 28.10153 | -81.86605 | 1177 ft | 90 kts | 243° |
| 2026-04-26 22:03 | 28.09838 | -81.87212 | 1183 ft | 89 kts | 248° |
| 2026-04-26 22:03 | 28.09567 | -81.87859 | 1153 ft | 91 kts | 253° |
| 2026-04-26 22:03 | 28.09337 | -81.88518 | 1173 ft | 88 kts | 251° |
| 2026-04-26 22:04 | 28.09092 | -81.89175 | 1134 ft | 91 kts | 255° |
| 2026-04-26 22:04 | 28.08901 | -81.89880 | 1074 ft | 94 kts | 259° |
| 2026-04-26 22:04 | 28.08771 | -81.90591 | 1060 ft | 94 kts | 262° |
| 2026-04-26 22:04 | 28.08579 | -81.91310 | 991 ft | 98 kts | 249° |
| 2026-04-26 22:05 | 28.08326 | -81.92031 | 928 ft | 96 kts | 257° |
| 2026-04-26 22:05 | 28.08239 | -81.92763 | 898 ft | 93 kts | 273° |
| 2026-04-26 22:05 | 28.08301 | -81.93487 | 921 ft | 93 kts | 279° |
| 2026-04-26 22:05 | 28.08435 | -81.94170 | 973 ft | 93 kts | 283° |
| 2026-04-26 22:06 | 28.08470 | -81.94924 | 951 ft | 97 kts | 268° |
| 2026-04-26 22:06 | 28.08381 | -81.95676 | 944 ft | 99 kts | 259° |
| 2026-04-26 22:06 | 28.08129 | -81.96427 | 917 ft | 102 kts | 250° |
| 2026-04-26 22:06 | 28.07798 | -81.97134 | 894 ft | 104 kts | 245° |
| 2026-04-26 22:07 | 28.07358 | -81.97809 | 889 ft | 107 kts | 239° |
| 2026-04-26 22:07 | 28.06923 | -81.98424 | 946 ft | 94 kts | 239° |
| 2026-04-26 22:07 | 28.06502 | -81.98994 | 953 ft | 91 kts | 238° |
| 2026-04-26 22:07 | 28.06101 | -81.99551 | 948 ft | 92 kts | 239° |
| 2026-04-26 22:08 | 28.05704 | -82.00105 | 993 ft | 92 kts | 234° |
| 2026-04-26 22:08 | 28.05283 | -82.00671 | 1002 ft | 93 kts | 242° |
| 2026-04-26 22:08 | 28.04986 | -82.01292 | 999 ft | 94 kts | 252° |
| 2026-04-26 22:08 | 28.04651 | -82.01947 | 985 ft | 99 kts | 231° |
| 2026-04-26 22:09 | 28.04050 | -82.02307 | 1048 ft | 102 kts | 200° |
| 2026-04-26 22:09 | 28.03305 | -82.02287 | 1057 ft | 110 kts | 179° |
| 2026-04-26 22:09 | 28.02556 | -82.02116 | 1085 ft | 98 kts | 176° |
| 2026-04-26 22:09 | 28.01901 | -82.01945 | 1086 ft | 97 kts | 178° |
| 2026-04-26 22:10 | 28.01234 | -82.01784 | 1080 ft | 99 kts | 176° |
| 2026-04-26 22:10 | 28.00677 | -82.01308 | 1097 ft | 107 kts | 123° |
| 2026-04-26 22:10 | 28.00451 | -82.00517 | 1154 ft | 108 kts | 97° |
| 2026-04-26 22:10 | 28.00229 | -81.99792 | 1074 ft | 93 kts | 138° |
| 2026-04-26 22:11 | 27.99713 | -81.99551 | 786 ft | 77 kts | 196° |
| 2026-04-26 22:11 | 27.99264 | -81.99786 | 536 ft | 74 kts | 239° |
| 2026-04-26 22:11 | 27.99103 | -82.00339 | 384 ft | 70 kts | 260° |
| 2026-04-26 22:11 | 27.99052 | -82.00861 | 292 ft | 70 kts | 269° |
| 2026-04-26 22:12 | 27.99036 | -82.01410 | 220 ft | 65 kts | 270° |
| 2026-04-26 22:12 | 27.99037 | -82.01924 | 159 ft | 62 kts | 270° |
| 2026-04-26 22:12 | 27.99035 | -82.02340 | 126 ft | 41 kts | 272° |
| 2026-04-26 22:12 | 27.99037 | -82.02623 | 125 ft | 34 kts | 270° |
| 2026-04-26 22:13 | 27.99036 | -82.02846 | 125 ft | 24 kts | 270° |
| 2026-04-26 22:13 | 27.99037 | -82.03080 | 126 ft | 30 kts | 270° |
| 2026-04-26 22:13 | 27.99024 | -82.03323 | 128 ft | 29 kts | 225° |
| 2026-04-26 22:13 | 27.98833 | -82.03342 | 128 ft | 26 kts | 135° |
| 2026-04-26 22:14 | 27.98815 | -82.03249 | 126 ft | 0 kts | 94° |
| 2026-04-26 22:14 | 27.98815 | -82.03241 | 126 ft | 1 kts | 90° |
| 2026-04-26 22:14 | 27.98815 | -82.03221 | 126 ft | 3 kts | 90° |
| 2026-04-26 22:14 | 27.98815 | -82.03194 | 125 ft | 3 kts | 89° |
| 2026-04-26 22:15 | 27.98815 | -82.03161 | 125 ft | 4 kts | 89° |
| 2026-04-26 22:15 | 27.98815 | -82.03142 | 125 ft | 1 kts | 89° |
| 2026-04-26 22:15 | 27.98816 | -82.03128 | 125 ft | 1 kts | 89° |
| 2026-04-26 22:15 | 27.98816 | -82.03116 | 125 ft | 1 kts | 91° |
| 2026-04-26 22:16 | 27.98816 | -82.03104 | 125 ft | 1 kts | 89° |
| 2026-04-26 22:16 | 27.98816 | -82.03092 | 125 ft | 1 kts | 90° |
| 2026-04-26 22:16 | 27.98816 | -82.03080 | 125 ft | 1 kts | 90° |
| 2026-04-26 22:16 | 27.98815 | -82.03001 | 125 ft | 20 kts | 91° |
| 2026-04-26 22:17 | 27.98812 | -82.02837 | 122 ft | 20 kts | 95° |
| 2026-04-26 22:17 | 27.98815 | -82.02713 | 122 ft | 12 kts | 88° |
| 2026-04-26 22:17 | 27.98815 | -82.02622 | 122 ft | 10 kts | 91° |
| 2026-04-26 22:17 | 27.98816 | -82.02543 | 122 ft | 9 kts | 90° |
| 2026-04-26 22:18 | 27.98817 | -82.02474 | 122 ft | 7 kts | 90° |
| 2026-04-26 22:18 | 27.98816 | -82.02425 | 123 ft | 4 kts | 88° |
| 2026-04-26 22:18 | 27.98817 | -82.02380 | 124 ft | 12 kts | 88° |
| 2026-04-26 22:18 | 27.98769 | -82.02299 | 125 ft | 13 kts | 180° |
| 2026-04-26 22:19 | 27.98733 | -82.02232 | 125 ft | 11 kts | 88° |
| 2026-04-26 22:19 | 27.98732 | -82.02158 | 126 ft | 8 kts | 92° |
| 2026-04-26 22:19 | 27.98732 | -82.02106 | 127 ft | 5 kts | 90° |
| 2026-04-26 22:19 | 27.98732 | -82.02074 | 128 ft | 2 kts | 89° |
| 2026-04-26 22:20 | 27.98732 | -82.02057 | 128 ft | 1 kts | 87° |
| 2026-04-26 22:20 | 27.98733 | -82.02020 | 128 ft | 13 kts | 87° |
| 2026-04-26 22:20 | 27.98702 | -82.01932 | 128 ft | 0 kts | 122° |
| 2026-04-26 22:20 | 27.98706 | -82.01923 | 128 ft | 2 kts | 5° |
| 2026-04-26 22:47 | 27.98731 | -82.01910 | 128 ft | 11 kts | 63° |
| 2026-04-26 22:47 | 27.98735 | -82.01802 | 129 ft | 12 kts | 83° |
| 2026-04-26 22:47 | 27.98773 | -82.01734 | 130 ft | 9 kts | 44° |
| 2026-04-26 22:47 | 27.98810 | -82.01691 | 131 ft | 6 kts | 44° |
| 2026-04-26 22:48 | 27.98834 | -82.01667 | 131 ft | 3 kts | 46° |
| 2026-04-26 22:48 | 27.98846 | -82.01653 | 131 ft | 1 kts | 45° |
| 2026-04-26 22:48 | 27.98852 | -82.01646 | 131 ft | 0 kts | 39° |
| 2026-04-26 22:48 | 27.98920 | -82.01623 | 131 ft | 16 kts | 303° |
| 2026-04-26 22:49 | 27.98930 | -82.01784 | 131 ft | 44 kts | 271° |
| 2026-04-26 22:49 | 27.98933 | -82.02322 | 204 ft | 81 kts | 271° |
| 2026-04-26 22:49 | 27.98941 | -82.03022 | 505 ft | 98 kts | 272° |
| 2026-04-26 22:49 | 27.98954 | -82.03856 | 788 ft | 111 kts | 275° |
| 2026-04-26 22:50 | 27.98966 | -82.04719 | 1188 ft | 111 kts | 272° |
| 2026-04-26 22:50 | 27.98968 | -82.05590 | 1618 ft | 110 kts | 276° |
| 2026-04-26 22:50 | 27.99015 | -82.06426 | 2006 ft | 113 kts | 277° |
| 2026-04-26 22:50 | 27.99046 | -82.07299 | 2416 ft | 113 kts | 276° |
| 2026-04-26 22:51 | 27.99074 | -82.08210 | 2772 ft | 119 kts | 274° |
| 2026-04-26 22:51 | 27.98954 | -82.09152 | 3143 ft | 122 kts | 270° |
| 2026-04-26 22:51 | 27.99132 | -82.10068 | 3448 ft | 126 kts | 297° |
| 2026-04-26 22:51 | 27.99722 | -82.10851 | 3680 ft | 135 kts | 323° |
| 2026-04-26 22:52 | 28.00538 | -82.11431 | 3867 ft | 144 kts | 328° |
| 2026-04-26 22:52 | 28.01372 | -82.11996 | 4166 ft | 143 kts | 327° |
| 2026-04-26 22:52 | 28.02008 | -82.12806 | 4590 ft | 138 kts | 291° |
| 2026-04-26 22:52 | 28.01782 | -82.13773 | 5136 ft | 135 kts | 224° |
| 2026-04-26 22:53 | 28.00931 | -82.14188 | 5473 ft | 144 kts | 195° |
| 2026-04-26 22:53 | 27.99896 | -82.14357 | 5791 ft | 151 kts | 185° |
| 2026-04-26 22:53 | 27.98867 | -82.14504 | 6115 ft | 155 kts | 200° |
| 2026-04-26 22:53 | 27.98106 | -82.15259 | 6549 ft | 143 kts | 249° |
| 2026-04-26 22:54 | 27.98077 | -82.16307 | 6479 ft | 144 kts | 298° |
| 2026-04-26 22:54 | 27.98804 | -82.16950 | 6601 ft | 127 kts | 346° |
| 2026-04-26 22:54 | 27.99727 | -82.16956 | 6409 ft | 141 kts | 7° |
| 2026-04-26 22:54 | 28.00658 | -82.16729 | 6321 ft | 133 kts | 11° |
| 2026-04-26 22:55 | 28.01565 | -82.16427 | 6127 ft | 132 kts | 19° |
| 2026-04-26 22:55 | 28.02345 | -82.15959 | 6032 ft | 129 kts | 34° |
| 2026-04-26 22:55 | 28.03127 | -82.15392 | 5750 ft | 134 kts | 24° |
| 2026-04-26 22:55 | 28.03944 | -82.14956 | 5690 ft | 125 kts | 26° |
| 2026-04-26 22:56 | 28.04685 | -82.14426 | 5521 ft | 127 kts | 34° |
| 2026-04-26 22:56 | 28.05332 | -82.13745 | 5398 ft | 126 kts | 45° |
| 2026-04-26 22:56 | 28.05903 | -82.12984 | 5206 ft | 128 kts | 42° |
| 2026-04-26 22:56 | 28.06601 | -82.12691 | 5437 ft | 97 kts | 343° |
| 2026-04-26 22:57 | 28.06688 | -82.13278 | 5601 ft | 101 kts | 222° |
| 2026-04-26 22:57 | 28.06093 | -82.13585 | 5833 ft | 104 kts | 202° |
| 2026-04-26 22:57 | 28.05388 | -82.13857 | 6042 ft | 110 kts | 201° |
| 2026-04-26 22:57 | 28.04634 | -82.14053 | 6319 ft | 108 kts | 193° |
| 2026-04-26 22:58 | 28.03875 | -82.14243 | 6471 ft | 119 kts | 199° |
| 2026-04-26 22:58 | 28.03087 | -82.14487 | 6797 ft | 114 kts | 195° |
| 2026-04-26 22:58 | 28.02301 | -82.14687 | 7022 ft | 119 kts | 194° |
| 2026-04-26 22:58 | 28.01458 | -82.14844 | 7199 ft | 130 kts | 188° |
| 2026-04-26 22:59 | 28.00527 | -82.14835 | 7429 ft | 133 kts | 177° |
| 2026-04-26 22:59 | 27.99610 | -82.14703 | 7670 ft | 137 kts | 171° |
| 2026-04-26 22:59 | 27.98633 | -82.14555 | 7876 ft | 142 kts | 163° |
| 2026-04-26 22:59 | 27.97683 | -82.14138 | 7944 ft | 156 kts | 170° |
| 2026-04-26 23:00 | 27.96605 | -82.14070 | 8125 ft | 153 kts | 198° |
| 2026-04-26 23:00 | 27.95509 | -82.14296 | 8195 ft | 163 kts | 183° |
| 2026-04-26 23:00 | 27.94414 | -82.14178 | 8452 ft | 157 kts | 175° |
| 2026-04-26 23:00 | 27.93319 | -82.13914 | 8542 ft | 165 kts | 168° |
| 2026-04-26 23:01 | 27.92259 | -82.13387 | 8685 ft | 167 kts | 146° |
| 2026-04-26 23:01 | 27.91439 | -82.12495 | 8858 ft | 164 kts | 127° |
| 2026-04-26 23:01 | 27.90778 | -82.11434 | 8970 ft | 167 kts | 117° |
| 2026-04-26 23:01 | 27.90315 | -82.10226 | 9092 ft | 165 kts | 107° |
| 2026-04-26 23:02 | 27.89818 | -82.09071 | 9260 ft | 165 kts | 110° |
| 2026-04-26 23:02 | 27.89497 | -82.07822 | 9327 ft | 166 kts | 95° |
| 2026-04-26 23:02 | 27.89390 | -82.06450 | 9129 ft | 182 kts | 86° |
| 2026-04-26 23:02 | 27.89501 | -82.05051 | 9201 ft | 172 kts | 73° |
| 2026-04-26 23:03 | 27.89809 | -82.03743 | 8905 ft | 189 kts | 67° |
| 2026-04-26 23:03 | 27.90307 | -82.02322 | 8537 ft | 198 kts | 68° |
| 2026-04-26 23:03 | 27.90652 | -82.00841 | 8413 ft | 195 kts | 71° |
| 2026-04-26 23:03 | 27.90991 | -81.99345 | 8111 ft | 201 kts | 69° |
| 2026-04-26 23:04 | 27.91295 | -81.97884 | 8077 ft | 191 kts | 74° |
| 2026-04-26 23:04 | 27.91710 | -81.96447 | 7839 ft | 193 kts | 64° |
| 2026-04-26 23:04 | 27.92199 | -81.95022 | 7530 ft | 198 kts | 65° |
| 2026-04-26 23:04 | 27.92745 | -81.93801 | 7214 ft | 160 kts | 47° |
| 2026-04-26 23:05 | 27.93556 | -81.93096 | 6885 ft | 135 kts | 21° |
| 2026-04-26 23:05 | 27.94401 | -81.92973 | 6632 ft | 122 kts | 353° |
| 2026-04-26 23:05 | 27.95210 | -81.93179 | 6340 ft | 115 kts | 343° |
| 2026-04-26 23:05 | 27.95702 | -81.93384 | 6132 ft | 114 kts | 340° |
| 2026-04-26 23:06 | 27.96063 | -81.93564 | 5915 ft | 120 kts | 334° |
| 2026-04-26 23:06 | 27.96709 | -81.94152 | 5532 ft | 123 kts | 316° |
| 2026-04-26 23:06 | 27.97395 | -81.94687 | 5180 ft | 118 kts | 342° |
| 2026-04-26 23:06 | 27.98203 | -81.94689 | 4835 ft | 119 kts | 12° |
| 2026-04-26 23:07 | 27.98970 | -81.94288 | 4402 ft | 125 kts | 25° |
| 2026-04-26 23:07 | 27.99762 | -81.93968 | 4037 ft | 121 kts | 7° |
| 2026-04-26 23:07 | 28.00600 | -81.93878 | 3651 ft | 120 kts | 355° |
| 2026-04-26 23:07 | 28.01278 | -81.94253 | 3318 ft | 114 kts | 291° |
| 2026-04-26 23:08 | 28.00926 | -81.95033 | 2837 ft | 135 kts | 208° |
| 2026-04-26 23:08 | 28.00022 | -81.95134 | 2566 ft | 116 kts | 201° |
| 2026-04-26 23:08 | 27.99396 | -81.95544 | 2070 ft | 105 kts | 229° |
| 2026-04-26 23:08 | 27.99083 | -81.96187 | 1609 ft | 88 kts | 266° |
| 2026-04-26 23:09 | 27.98970 | -81.96841 | 1191 ft | 87 kts | 275° |
| 2026-04-26 23:09 | 27.99018 | -81.97514 | 949 ft | 86 kts | 277° |
| 2026-04-26 23:09 | 27.99027 | -81.98191 | 840 ft | 87 kts | 273° |
| 2026-04-26 23:09 | 27.99023 | -81.98868 | 721 ft | 88 kts | 279° |
| 2026-04-26 23:10 | 27.99062 | -81.99548 | 628 ft | 84 kts | 279° |
| 2026-04-26 23:10 | 27.99050 | -82.00145 | 432 ft | 73 kts | 271° |
| 2026-04-26 23:10 | 27.99044 | -82.00729 | 337 ft | 79 kts | 276° |
| 2026-04-26 23:10 | 27.99042 | -82.01316 | 223 ft | 72 kts | 274° |
| 2026-04-26 23:11 | 27.99036 | -82.01839 | 151 ft | 62 kts | 275° |
| 2026-04-26 23:11 | 27.99037 | -82.02284 | 127 ft | 43 kts | 274° |
| 2026-04-26 23:11 | 27.99035 | -82.02560 | 125 ft | 29 kts | 269° |
| 2026-04-26 23:11 | 27.99037 | -82.02755 | 125 ft | 20 kts | 269° |
| 2026-04-26 23:12 | 27.99027 | -82.02887 | 125 ft | 11 kts | 238° |
| 2026-04-26 23:12 | 27.98992 | -82.02895 | 125 ft | 10 kts | 176° |
| 2026-04-26 23:12 | 27.98819 | -82.02848 | 122 ft | 30 kts | 92° |
| 2026-04-26 23:12 | 27.98816 | -82.02663 | 122 ft | 20 kts | 89° |
| 2026-04-26 23:13 | 27.98816 | -82.02512 | 122 ft | 17 kts | 88° |
| 2026-04-26 23:13 | 27.98817 | -82.02396 | 124 ft | 14 kts | 89° |
| 2026-04-26 23:13 | 27.98793 | -82.02303 | 125 ft | 11 kts | 156° |
| 2026-04-26 23:13 | 27.98731 | -82.02277 | 125 ft | 9 kts | 100° |
| 2026-04-26 23:14 | 27.98731 | -82.02213 | 125 ft | 7 kts | 91° |
| 2026-04-26 23:14 | 27.98731 | -82.02172 | 126 ft | 4 kts | 87° |
| 2026-04-26 23:14 | 27.98733 | -82.02125 | 127 ft | 14 kts | 88° |
| 2026-04-26 23:14 | 27.98734 | -82.01979 | 128 ft | 17 kts | 96° |
| 2026-04-26 23:15 | 27.98720 | -82.01935 | 128 ft | 0 kts | 307° |
| 2026-04-26 23:15 | 27.98720 | -82.01936 | 128 ft | 0 kts | 307° |
| 2026-04-26 23:15 | 27.98701 | -82.01920 | 128 ft | 0 kts | 358° |